sensor_id;sensor_type;location;lat;lon;timestamp;P1;durP1;ratioP1;P2;durP2;ratioP2
49566;SDS011;35472;50.514;30.448;2023-12-20T00:00:50;9.10;;;6.60;;
49566;SDS011;35472;50.514;30.448;2023-12-20T00:03:16;11.57;;;6.65;;
49566;SDS011;35472;50.514;30.448;2023-12-20T00:05:41;11.45;;;7.20;;
49566;SDS011;35472;50.514;30.448;2023-12-20T00:08:06;6.72;;;4.82;;
49566;SDS011;35472;50.514;30.448;2023-12-20T00:10:32;11.10;;;6.97;;
49566;SDS011;35472;50.514;30.448;2023-12-20T00:12:57;9.70;;;6.32;;
49566;SDS011;35472;50.514;30.448;2023-12-20T00:15:22;8.85;;;5.82;;
49566;SDS011;35472;50.514;30.448;2023-12-20T00:17:48;9.23;;;6.45;;
49566;SDS011;35472;50.514;30.448;2023-12-20T00:20:13;8.57;;;6.13;;
49566;SDS011;35472;50.514;30.448;2023-12-20T00:22:39;11.52;;;5.95;;
49566;SDS011;35472;50.514;30.448;2023-12-20T00:25:04;11.73;;;6.95;;
49566;SDS011;35472;50.514;30.448;2023-12-20T00:27:30;10.93;;;6.75;;
49566;SDS011;35472;50.514;30.448;2023-12-20T00:29:55;10.27;;;6.80;;
49566;SDS011;35472;50.514;30.448;2023-12-20T00:32:20;8.23;;;6.30;;
49566;SDS011;35472;50.514;30.448;2023-12-20T00:34:48;9.50;;;6.50;;
49566;SDS011;35472;50.514;30.448;2023-12-20T00:37:13;9.23;;;5.82;;
49566;SDS011;35472;50.514;30.448;2023-12-20T00:39:39;9.48;;;6.07;;
49566;SDS011;35472;50.514;30.448;2023-12-20T00:42:06;10.68;;;6.30;;
49566;SDS011;35472;50.514;30.448;2023-12-20T00:44:32;10.45;;;6.50;;
49566;SDS011;35472;50.514;30.448;2023-12-20T00:46:57;8.35;;;5.13;;
49566;SDS011;35472;50.514;30.448;2023-12-20T00:49:22;8.93;;;6.25;;
49566;SDS011;35472;50.514;30.448;2023-12-20T00:51:48;9.35;;;6.47;;
49566;SDS011;35472;50.514;30.448;2023-12-20T00:54:15;8.43;;;6.15;;
49566;SDS011;35472;50.514;30.448;2023-12-20T00:56:41;8.07;;;5.82;;
49566;SDS011;35472;50.514;30.448;2023-12-20T00:59:06;10.18;;;5.70;;
49566;SDS011;35472;50.514;30.448;2023-12-20T01:01:31;6.88;;;5.30;;
49566;SDS011;35472;50.514;30.448;2023-12-20T01:03:58;6.72;;;4.82;;
49566;SDS011;35472;50.514;30.448;2023-12-20T01:06:23;8.77;;;5.47;;
49566;SDS011;35472;50.514;30.448;2023-12-20T01:08:49;7.60;;;5.55;;
49566;SDS011;35472;50.514;30.448;2023-12-20T01:11:14;9.85;;;5.72;;
49566;SDS011;35472;50.514;30.448;2023-12-20T01:13:39;8.13;;;5.47;;
49566;SDS011;35472;50.514;30.448;2023-12-20T01:16:05;8.77;;;4.78;;
49566;SDS011;35472;50.514;30.448;2023-12-20T01:18:30;9.52;;;5.57;;
49566;SDS011;35472;50.514;30.448;2023-12-20T01:20:56;9.98;;;5.22;;
49566;SDS011;35472;50.514;30.448;2023-12-20T01:23:21;9.60;;;5.35;;
49566;SDS011;35472;50.514;30.448;2023-12-20T01:25:47;10.63;;;6.22;;
49566;SDS011;35472;50.514;30.448;2023-12-20T01:28:13;8.52;;;6.10;;
49566;SDS011;35472;50.514;30.448;2023-12-20T01:30:39;10.02;;;5.32;;
49566;SDS011;35472;50.514;30.448;2023-12-20T01:33:07;10.70;;;5.53;;
49566;SDS011;35472;50.514;30.448;2023-12-20T01:35:32;10.63;;;4.97;;
49566;SDS011;35472;50.514;30.448;2023-12-20T01:37:58;7.57;;;5.03;;
49566;SDS011;35472;50.514;30.448;2023-12-20T01:40:23;9.70;;;5.10;;
49566;SDS011;35472;50.514;30.448;2023-12-20T01:42:57;8.90;;;5.32;;
49566;SDS011;35472;50.514;30.448;2023-12-20T01:45:26;9.10;;;5.78;;
49566;SDS011;35472;50.514;30.448;2023-12-20T01:47:52;7.35;;;4.93;;
49566;SDS011;35472;50.514;30.448;2023-12-20T01:50:18;8.82;;;4.90;;
49566;SDS011;35472;50.514;30.448;2023-12-20T01:52:43;11.10;;;5.13;;
49566;SDS011;35472;50.514;30.448;2023-12-20T01:55:10;8.25;;;5.93;;
49566;SDS011;35472;50.514;30.448;2023-12-20T01:57:43;8.45;;;5.68;;
49566;SDS011;35472;50.514;30.448;2023-12-20T02:00:09;6.32;;;4.72;;
49566;SDS011;35472;50.514;30.448;2023-12-20T02:02:36;7.63;;;5.60;;
49566;SDS011;35472;50.514;30.448;2023-12-20T02:05:05;7.93;;;5.50;;
49566;SDS011;35472;50.514;30.448;2023-12-20T02:07:31;6.20;;;3.80;;
49566;SDS011;35472;50.514;30.448;2023-12-20T02:09:56;7.75;;;5.45;;
49566;SDS011;35472;50.514;30.448;2023-12-20T02:12:22;7.55;;;5.30;;
49566;SDS011;35472;50.514;30.448;2023-12-20T02:14:48;10.32;;;5.28;;
49566;SDS011;35472;50.514;30.448;2023-12-20T02:17:14;6.93;;;4.53;;
49566;SDS011;35472;50.514;30.448;2023-12-20T02:19:41;10.80;;;5.25;;
49566;SDS011;35472;50.514;30.448;2023-12-20T02:22:11;8.10;;;4.90;;
49566;SDS011;35472;50.514;30.448;2023-12-20T02:24:37;6.75;;;4.40;;
49566;SDS011;35472;50.514;30.448;2023-12-20T02:27:07;6.93;;;5.07;;
49566;SDS011;35472;50.514;30.448;2023-12-20T02:29:34;11.88;;;5.50;;
49566;SDS011;35472;50.514;30.448;2023-12-20T02:32:00;8.13;;;4.53;;
49566;SDS011;35472;50.514;30.448;2023-12-20T02:34:25;8.65;;;5.93;;
49566;SDS011;35472;50.514;30.448;2023-12-20T02:36:51;9.55;;;5.43;;
49566;SDS011;35472;50.514;30.448;2023-12-20T02:39:16;11.05;;;4.93;;
49566;SDS011;35472;50.514;30.448;2023-12-20T02:41:43;9.05;;;4.75;;
49566;SDS011;35472;50.514;30.448;2023-12-20T02:44:08;8.15;;;5.05;;
49566;SDS011;35472;50.514;30.448;2023-12-20T02:46:34;7.13;;;4.60;;
49566;SDS011;35472;50.514;30.448;2023-12-20T02:48:59;8.68;;;4.95;;
49566;SDS011;35472;50.514;30.448;2023-12-20T02:51:24;7.20;;;4.65;;
49566;SDS011;35472;50.514;30.448;2023-12-20T02:53:50;9.15;;;5.72;;
49566;SDS011;35472;50.514;30.448;2023-12-20T02:56:15;9.70;;;5.75;;
49566;SDS011;35472;50.514;30.448;2023-12-20T02:58:41;5.47;;;4.22;;
49566;SDS011;35472;50.514;30.448;2023-12-20T03:01:06;10.93;;;6.15;;
49566;SDS011;35472;50.514;30.448;2023-12-20T03:03:33;9.75;;;5.03;;
49566;SDS011;35472;50.514;30.448;2023-12-20T03:05:59;6.30;;;5.05;;
49566;SDS011;35472;50.514;30.448;2023-12-20T03:08:25;7.78;;;5.50;;
49566;SDS011;35472;50.514;30.448;2023-12-20T03:10:50;8.65;;;4.55;;
49566;SDS011;35472;50.514;30.448;2023-12-20T03:13:15;9.52;;;6.35;;
49566;SDS011;35472;50.514;30.448;2023-12-20T03:15:41;11.52;;;6.18;;
49566;SDS011;35472;50.514;30.448;2023-12-20T03:18:06;8.05;;;5.10;;
49566;SDS011;35472;50.514;30.448;2023-12-20T03:20:31;7.05;;;5.13;;
49566;SDS011;35472;50.514;30.448;2023-12-20T03:22:59;8.80;;;5.78;;
49566;SDS011;35472;50.514;30.448;2023-12-20T03:25:25;7.75;;;5.28;;
49566;SDS011;35472;50.514;30.448;2023-12-20T03:27:50;7.63;;;5.35;;
49566;SDS011;35472;50.514;30.448;2023-12-20T03:30:16;8.45;;;5.30;;
49566;SDS011;35472;50.514;30.448;2023-12-20T03:32:41;9.35;;;5.03;;
49566;SDS011;35472;50.514;30.448;2023-12-20T03:35:07;7.88;;;4.85;;
49566;SDS011;35472;50.514;30.448;2023-12-20T03:37:32;7.72;;;5.13;;
49566;SDS011;35472;50.514;30.448;2023-12-20T03:39:57;9.00;;;5.28;;
49566;SDS011;35472;50.514;30.448;2023-12-20T03:42:23;6.32;;;4.80;;
49566;SDS011;35472;50.514;30.448;2023-12-20T03:44:48;7.85;;;5.63;;
49566;SDS011;35472;50.514;30.448;2023-12-20T03:47:13;10.05;;;5.70;;
49566;SDS011;35472;50.514;30.448;2023-12-20T03:49:39;6.45;;;4.78;;
49566;SDS011;35472;50.514;30.448;2023-12-20T03:52:04;10.68;;;5.40;;
49566;SDS011;35472;50.514;30.448;2023-12-20T03:54:30;7.10;;;4.65;;
49566;SDS011;35472;50.514;30.448;2023-12-20T03:56:55;6.97;;;5.25;;
49566;SDS011;35472;50.514;30.448;2023-12-20T03:59:21;8.25;;;4.95;;
49566;SDS011;35472;50.514;30.448;2023-12-20T04:01:46;6.82;;;4.50;;
49566;SDS011;35472;50.514;30.448;2023-12-20T04:04:12;9.50;;;4.97;;
49566;SDS011;35472;50.514;30.448;2023-12-20T04:06:38;9.07;;;5.15;;
49566;SDS011;35472;50.514;30.448;2023-12-20T04:09:03;7.85;;;6.05;;
49566;SDS011;35472;50.514;30.448;2023-12-20T04:11:29;11.50;;;6.15;;
49566;SDS011;35472;50.514;30.448;2023-12-20T04:13:57;7.18;;;5.03;;
49566;SDS011;35472;50.514;30.448;2023-12-20T04:16:23;6.47;;;5.35;;
49566;SDS011;35472;50.514;30.448;2023-12-20T04:18:48;6.05;;;4.93;;
49566;SDS011;35472;50.514;30.448;2023-12-20T04:21:13;7.70;;;5.57;;
49566;SDS011;35472;50.514;30.448;2023-12-20T04:23:38;9.32;;;5.60;;
49566;SDS011;35472;50.514;30.448;2023-12-20T04:26:04;10.10;;;5.50;;
49566;SDS011;35472;50.514;30.448;2023-12-20T04:28:32;11.73;;;5.78;;
49566;SDS011;35472;50.514;30.448;2023-12-20T04:30:58;9.15;;;6.13;;
49566;SDS011;35472;50.514;30.448;2023-12-20T04:33:23;12.82;;;5.65;;
49566;SDS011;35472;50.514;30.448;2023-12-20T04:35:48;8.38;;;5.85;;
49566;SDS011;35472;50.514;30.448;2023-12-20T04:38:14;7.28;;;5.55;;
49566;SDS011;35472;50.514;30.448;2023-12-20T04:40:39;10.88;;;5.72;;
49566;SDS011;35472;50.514;30.448;2023-12-20T04:43:06;8.65;;;5.53;;
49566;SDS011;35472;50.514;30.448;2023-12-20T04:45:32;8.10;;;5.60;;
49566;SDS011;35472;50.514;30.448;2023-12-20T04:47:57;7.65;;;5.25;;
49566;SDS011;35472;50.514;30.448;2023-12-20T04:50:23;10.02;;;6.38;;
49566;SDS011;35472;50.514;30.448;2023-12-20T04:52:48;10.68;;;6.03;;
49566;SDS011;35472;50.514;30.448;2023-12-20T04:55:14;9.10;;;6.05;;
49566;SDS011;35472;50.514;30.448;2023-12-20T04:57:39;7.50;;;5.47;;
49566;SDS011;35472;50.514;30.448;2023-12-20T05:00:05;8.27;;;5.55;;
49566;SDS011;35472;50.514;30.448;2023-12-20T05:02:31;10.57;;;6.25;;
49566;SDS011;35472;50.514;30.448;2023-12-20T05:04:56;7.05;;;5.07;;
49566;SDS011;35472;50.514;30.448;2023-12-20T05:07:21;9.52;;;5.75;;
49566;SDS011;35472;50.514;30.448;2023-12-20T05:09:48;7.95;;;5.55;;
49566;SDS011;35472;50.514;30.448;2023-12-20T05:12:14;8.50;;;5.68;;
49566;SDS011;35472;50.514;30.448;2023-12-20T05:14:40;6.70;;;5.35;;
49566;SDS011;35472;50.514;30.448;2023-12-20T05:17:05;13.25;;;6.68;;
49566;SDS011;35472;50.514;30.448;2023-12-20T05:19:31;9.68;;;5.85;;
49566;SDS011;35472;50.514;30.448;2023-12-20T05:22:00;11.40;;;6.50;;
49566;SDS011;35472;50.514;30.448;2023-12-20T05:24:29;11.82;;;7.03;;
49566;SDS011;35472;50.514;30.448;2023-12-20T05:26:57;14.00;;;7.93;;
49566;SDS011;35472;50.514;30.448;2023-12-20T05:29:22;11.20;;;7.15;;
49566;SDS011;35472;50.514;30.448;2023-12-20T05:31:47;12.13;;;6.50;;
49566;SDS011;35472;50.514;30.448;2023-12-20T05:34:13;11.20;;;6.38;;
49566;SDS011;35472;50.514;30.448;2023-12-20T05:36:38;10.75;;;6.68;;
49566;SDS011;35472;50.514;30.448;2023-12-20T05:39:04;8.77;;;5.70;;
49566;SDS011;35472;50.514;30.448;2023-12-20T05:41:33;10.85;;;6.75;;
49566;SDS011;35472;50.514;30.448;2023-12-20T05:43:58;8.77;;;6.05;;
49566;SDS011;35472;50.514;30.448;2023-12-20T05:46:25;8.85;;;6.72;;
49566;SDS011;35472;50.514;30.448;2023-12-20T05:48:51;8.15;;;5.68;;
49566;SDS011;35472;50.514;30.448;2023-12-20T05:51:16;8.65;;;5.65;;
49566;SDS011;35472;50.514;30.448;2023-12-20T05:53:44;14.75;;;6.75;;
49566;SDS011;35472;50.514;30.448;2023-12-20T05:56:10;10.90;;;6.70;;
49566;SDS011;35472;50.514;30.448;2023-12-20T05:58:35;10.55;;;5.85;;
49566;SDS011;35472;50.514;30.448;2023-12-20T06:01:03;12.30;;;7.35;;
49566;SDS011;35472;50.514;30.448;2023-12-20T06:03:29;9.48;;;6.22;;
49566;SDS011;35472;50.514;30.448;2023-12-20T06:05:55;9.38;;;6.30;;
49566;SDS011;35472;50.514;30.448;2023-12-20T06:08:20;10.50;;;6.47;;
49566;SDS011;35472;50.514;30.448;2023-12-20T06:10:45;13.65;;;6.40;;
49566;SDS011;35472;50.514;30.448;2023-12-20T06:13:11;12.73;;;7.07;;
49566;SDS011;35472;50.514;30.448;2023-12-20T06:15:38;10.52;;;7.20;;
49566;SDS011;35472;50.514;30.448;2023-12-20T06:18:03;8.20;;;6.28;;
49566;SDS011;35472;50.514;30.448;2023-12-20T06:20:29;9.55;;;6.85;;
49566;SDS011;35472;50.514;30.448;2023-12-20T06:22:54;12.82;;;6.97;;
49566;SDS011;35472;50.514;30.448;2023-12-20T06:25:20;11.27;;;6.68;;
49566;SDS011;35472;50.514;30.448;2023-12-20T06:27:46;11.38;;;6.65;;
49566;SDS011;35472;50.514;30.448;2023-12-20T06:30:15;9.02;;;6.07;;
49566;SDS011;35472;50.514;30.448;2023-12-20T06:32:41;11.05;;;5.88;;
49566;SDS011;35472;50.514;30.448;2023-12-20T06:35:08;10.40;;;6.75;;
49566;SDS011;35472;50.514;30.448;2023-12-20T06:37:34;11.77;;;7.25;;
49566;SDS011;35472;50.514;30.448;2023-12-20T06:39:59;8.32;;;6.60;;
49566;SDS011;35472;50.514;30.448;2023-12-20T06:42:24;13.93;;;7.45;;
49566;SDS011;35472;50.514;30.448;2023-12-20T06:44:50;9.60;;;6.38;;
49566;SDS011;35472;50.514;30.448;2023-12-20T06:47:15;10.20;;;6.45;;
49566;SDS011;35472;50.514;30.448;2023-12-20T06:49:41;13.45;;;7.68;;
49566;SDS011;35472;50.514;30.448;2023-12-20T06:52:06;13.45;;;7.70;;
49566;SDS011;35472;50.514;30.448;2023-12-20T06:54:31;12.40;;;6.95;;
49566;SDS011;35472;50.514;30.448;2023-12-20T06:56:59;13.07;;;7.10;;
49566;SDS011;35472;50.514;30.448;2023-12-20T06:59:24;12.57;;;7.85;;
49566;SDS011;35472;50.514;30.448;2023-12-20T07:01:51;10.48;;;7.20;;
49566;SDS011;35472;50.514;30.448;2023-12-20T07:04:16;14.77;;;8.05;;
49566;SDS011;35472;50.514;30.448;2023-12-20T07:06:45;10.55;;;7.45;;
49566;SDS011;35472;50.514;30.448;2023-12-20T07:09:10;10.73;;;6.80;;
49566;SDS011;35472;50.514;30.448;2023-12-20T07:11:36;12.02;;;7.75;;
49566;SDS011;35472;50.514;30.448;2023-12-20T07:14:01;18.35;;;7.32;;
49566;SDS011;35472;50.514;30.448;2023-12-20T07:16:26;9.70;;;5.93;;
49566;SDS011;35472;50.514;30.448;2023-12-20T07:18:52;9.90;;;7.15;;
49566;SDS011;35472;50.514;30.448;2023-12-20T07:21:17;16.48;;;6.78;;
49566;SDS011;35472;50.514;30.448;2023-12-20T07:23:43;9.63;;;6.32;;
49566;SDS011;35472;50.514;30.448;2023-12-20T07:26:08;9.98;;;6.40;;
49566;SDS011;35472;50.514;30.448;2023-12-20T07:28:34;10.35;;;6.30;;
49566;SDS011;35472;50.514;30.448;2023-12-20T07:30:59;11.57;;;7.45;;
49566;SDS011;35472;50.514;30.448;2023-12-20T07:33:25;9.55;;;6.10;;
49566;SDS011;35472;50.514;30.448;2023-12-20T07:35:50;11.25;;;6.63;;
49566;SDS011;35472;50.514;30.448;2023-12-20T07:38:17;11.77;;;6.43;;
49566;SDS011;35472;50.514;30.448;2023-12-20T07:40:42;8.88;;;6.28;;
49566;SDS011;35472;50.514;30.448;2023-12-20T07:43:07;10.93;;;6.13;;
49566;SDS011;35472;50.514;30.448;2023-12-20T07:45:33;8.80;;;6.35;;
49566;SDS011;35472;50.514;30.448;2023-12-20T07:47:58;10.82;;;7.10;;
49566;SDS011;35472;50.514;30.448;2023-12-20T07:50:24;8.95;;;5.57;;
49566;SDS011;35472;50.514;30.448;2023-12-20T07:52:49;9.98;;;6.45;;
49566;SDS011;35472;50.514;30.448;2023-12-20T07:55:15;11.07;;;7.28;;
49566;SDS011;35472;50.514;30.448;2023-12-20T07:57:40;11.30;;;6.18;;
49566;SDS011;35472;50.514;30.448;2023-12-20T08:00:06;11.23;;;6.78;;
49566;SDS011;35472;50.514;30.448;2023-12-20T08:02:32;10.90;;;6.70;;
49566;SDS011;35472;50.514;30.448;2023-12-20T08:04:57;12.55;;;6.45;;
49566;SDS011;35472;50.514;30.448;2023-12-20T08:07:22;7.72;;;5.75;;
49566;SDS011;35472;50.514;30.448;2023-12-20T08:09:49;14.73;;;7.25;;
49566;SDS011;35472;50.514;30.448;2023-12-20T08:12:16;8.00;;;6.13;;
49566;SDS011;35472;50.514;30.448;2023-12-20T08:14:42;10.93;;;6.03;;
49566;SDS011;35472;50.514;30.448;2023-12-20T08:17:11;7.88;;;6.97;;
49566;SDS011;35472;50.514;30.448;2023-12-20T08:19:37;9.68;;;6.13;;
49566;SDS011;35472;50.514;30.448;2023-12-20T08:22:03;9.05;;;6.70;;
49566;SDS011;35472;50.514;30.448;2023-12-20T08:24:29;9.27;;;6.35;;
49566;SDS011;35472;50.514;30.448;2023-12-20T08:26:54;8.73;;;5.80;;
49566;SDS011;35472;50.514;30.448;2023-12-20T08:29:20;8.85;;;6.30;;
49566;SDS011;35472;50.514;30.448;2023-12-20T08:31:51;9.40;;;5.68;;
49566;SDS011;35472;50.514;30.448;2023-12-20T08:34:20;8.73;;;6.97;;
49566;SDS011;35472;50.514;30.448;2023-12-20T08:36:45;11.10;;;5.63;;
49566;SDS011;35472;50.514;30.448;2023-12-20T08:39:10;10.00;;;5.78;;
49566;SDS011;35472;50.514;30.448;2023-12-20T08:41:36;7.88;;;5.45;;
49566;SDS011;35472;50.514;30.448;2023-12-20T08:44:02;11.45;;;6.35;;
49566;SDS011;35472;50.514;30.448;2023-12-20T08:46:28;8.65;;;5.50;;
49566;SDS011;35472;50.514;30.448;2023-12-20T08:48:54;8.50;;;5.93;;
49566;SDS011;35472;50.514;30.448;2023-12-20T08:51:19;6.78;;;5.15;;
49566;SDS011;35472;50.514;30.448;2023-12-20T08:53:46;15.95;;;7.20;;
49566;SDS011;35472;50.514;30.448;2023-12-20T08:56:12;10.60;;;6.65;;
49566;SDS011;35472;50.514;30.448;2023-12-20T08:58:40;9.57;;;6.05;;
49566;SDS011;35472;50.514;30.448;2023-12-20T09:01:05;9.95;;;5.45;;
49566;SDS011;35472;50.514;30.448;2023-12-20T09:03:35;11.48;;;6.00;;
49566;SDS011;35472;50.514;30.448;2023-12-20T09:06:01;10.48;;;6.00;;
49566;SDS011;35472;50.514;30.448;2023-12-20T09:08:27;9.82;;;5.68;;
49566;SDS011;35472;50.514;30.448;2023-12-20T09:10:52;8.07;;;5.32;;
49566;SDS011;35472;50.514;30.448;2023-12-20T09:13:18;8.60;;;6.30;;
49566;SDS011;35472;50.514;30.448;2023-12-20T09:15:43;11.45;;;6.07;;
49566;SDS011;35472;50.514;30.448;2023-12-20T09:18:08;9.93;;;6.40;;
49566;SDS011;35472;50.514;30.448;2023-12-20T09:20:35;7.15;;;5.75;;
49566;SDS011;35472;50.514;30.448;2023-12-20T09:23:00;10.05;;;6.60;;
49566;SDS011;35472;50.514;30.448;2023-12-20T09:25:26;10.57;;;6.28;;
49566;SDS011;35472;50.514;30.448;2023-12-20T09:27:52;8.50;;;5.78;;
49566;SDS011;35472;50.514;30.448;2023-12-20T09:30:18;10.00;;;6.68;;
49566;SDS011;35472;50.514;30.448;2023-12-20T09:32:44;10.30;;;6.55;;
49566;SDS011;35472;50.514;30.448;2023-12-20T09:35:10;9.40;;;5.95;;
49566;SDS011;35472;50.514;30.448;2023-12-20T09:37:35;11.95;;;6.53;;
49566;SDS011;35472;50.514;30.448;2023-12-20T09:40:01;12.68;;;6.43;;
49566;SDS011;35472;50.514;30.448;2023-12-20T09:42:38;10.00;;;5.35;;
49566;SDS011;35472;50.514;30.448;2023-12-20T09:45:13;9.88;;;6.03;;
49566;SDS011;35472;50.514;30.448;2023-12-20T09:47:42;10.98;;;6.05;;
49566;SDS011;35472;50.514;30.448;2023-12-20T09:50:08;11.50;;;5.82;;
49566;SDS011;35472;50.514;30.448;2023-12-20T09:52:34;8.85;;;5.90;;
49566;SDS011;35472;50.514;30.448;2023-12-20T09:55:02;11.02;;;7.22;;
49566;SDS011;35472;50.514;30.448;2023-12-20T09:57:31;7.43;;;5.25;;
49566;SDS011;35472;50.514;30.448;2023-12-20T09:59:57;10.57;;;5.47;;
49566;SDS011;35472;50.514;30.448;2023-12-20T10:02:23;8.05;;;5.25;;
49566;SDS011;35472;50.514;30.448;2023-12-20T10:04:52;7.03;;;4.93;;
49566;SDS011;35472;50.514;30.448;2023-12-20T10:07:19;7.88;;;5.10;;
49566;SDS011;35472;50.514;30.448;2023-12-20T10:09:45;10.00;;;5.03;;
49566;SDS011;35472;50.514;30.448;2023-12-20T10:12:12;10.32;;;5.93;;
49566;SDS011;35472;50.514;30.448;2023-12-20T10:14:38;8.20;;;5.80;;
49566;SDS011;35472;50.514;30.448;2023-12-20T10:17:04;11.55;;;6.00;;
49566;SDS011;35472;50.514;30.448;2023-12-20T10:19:30;12.38;;;6.53;;
49566;SDS011;35472;50.514;30.448;2023-12-20T10:21:57;8.30;;;5.47;;
49566;SDS011;35472;50.514;30.448;2023-12-20T10:24:24;10.20;;;5.07;;
49566;SDS011;35472;50.514;30.448;2023-12-20T10:27:00;7.15;;;4.65;;
49566;SDS011;35472;50.514;30.448;2023-12-20T10:29:35;8.50;;;5.03;;
49566;SDS011;35472;50.514;30.448;2023-12-20T10:35:04;8.40;;;4.70;;
49566;SDS011;35472;50.514;30.448;2023-12-20T10:37:29;7.70;;;4.47;;
49566;SDS011;35472;50.514;30.448;2023-12-20T10:39:55;6.60;;;4.47;;
49566;SDS011;35472;50.514;30.448;2023-12-20T10:42:27;6.90;;;4.32;;
49566;SDS011;35472;50.514;30.448;2023-12-20T10:44:54;6.88;;;4.80;;
49566;SDS011;35472;50.514;30.448;2023-12-20T10:47:20;6.68;;;4.53;;
49566;SDS011;35472;50.514;30.448;2023-12-20T10:49:46;5.97;;;4.80;;
49566;SDS011;35472;50.514;30.448;2023-12-20T10:52:12;6.32;;;5.13;;
49566;SDS011;35472;50.514;30.448;2023-12-20T10:54:41;6.70;;;4.70;;
49566;SDS011;35472;50.514;30.448;2023-12-20T10:57:08;6.78;;;4.28;;
49566;SDS011;35472;50.514;30.448;2023-12-20T10:59:33;7.25;;;5.00;;
49566;SDS011;35472;50.514;30.448;2023-12-20T11:02:03;7.25;;;5.18;;
49566;SDS011;35472;50.514;30.448;2023-12-20T11:04:51;8.15;;;6.15;;
49566;SDS011;35472;50.514;30.448;2023-12-20T11:07:23;9.68;;;5.13;;
49566;SDS011;35472;50.514;30.448;2023-12-20T11:09:58;14.05;;;7.05;;
49566;SDS011;35472;50.514;30.448;2023-12-20T11:12:31;10.77;;;5.40;;
49566;SDS011;35472;50.514;30.448;2023-12-20T11:15:03;8.48;;;5.40;;
49566;SDS011;35472;50.514;30.448;2023-12-20T11:17:29;7.65;;;5.00;;
49566;SDS011;35472;50.514;30.448;2023-12-20T11:22:23;6.85;;;5.13;;
49566;SDS011;35472;50.514;30.448;2023-12-20T11:24:50;8.48;;;5.15;;
49566;SDS011;35472;50.514;30.448;2023-12-20T11:27:16;8.90;;;5.07;;
49566;SDS011;35472;50.514;30.448;2023-12-20T11:29:50;5.95;;;4.47;;
49566;SDS011;35472;50.514;30.448;2023-12-20T11:34:56;7.82;;;5.30;;
49566;SDS011;35472;50.514;30.448;2023-12-20T11:37:28;7.13;;;4.82;;
49566;SDS011;35472;50.514;30.448;2023-12-20T11:40:03;6.90;;;4.30;;
49566;SDS011;35472;50.514;30.448;2023-12-20T11:42:39;7.75;;;5.40;;
49566;SDS011;35472;50.514;30.448;2023-12-20T11:45:05;7.65;;;4.40;;
49566;SDS011;35472;50.514;30.448;2023-12-20T11:47:34;6.78;;;4.82;;
49566;SDS011;35472;50.514;30.448;2023-12-20T11:50:00;6.00;;;4.47;;
49566;SDS011;35472;50.514;30.448;2023-12-20T11:52:28;8.10;;;4.88;;
49566;SDS011;35472;50.514;30.448;2023-12-20T11:54:56;8.48;;;4.40;;
49566;SDS011;35472;50.514;30.448;2023-12-20T11:57:22;7.30;;;4.95;;
49566;SDS011;35472;50.514;30.448;2023-12-20T11:59:48;11.85;;;5.10;;
49566;SDS011;35472;50.514;30.448;2023-12-20T12:02:13;5.85;;;4.70;;
49566;SDS011;35472;50.514;30.448;2023-12-20T12:04:41;6.90;;;4.22;;
49566;SDS011;35472;50.514;30.448;2023-12-20T12:07:06;5.32;;;4.10;;
49566;SDS011;35472;50.514;30.448;2023-12-20T12:09:36;10.27;;;5.47;;
49566;SDS011;35472;50.514;30.448;2023-12-20T12:12:01;7.25;;;3.67;;
49566;SDS011;35472;50.514;30.448;2023-12-20T12:14:27;7.75;;;5.25;;
49566;SDS011;35472;50.514;30.448;2023-12-20T12:16:52;7.15;;;3.83;;
49566;SDS011;35472;50.514;30.448;2023-12-20T12:19:25;8.48;;;4.40;;
49566;SDS011;35472;50.514;30.448;2023-12-20T12:21:51;7.30;;;4.97;;
49566;SDS011;35472;50.514;30.448;2023-12-20T12:24:31;10.32;;;5.82;;
49566;SDS011;35472;50.514;30.448;2023-12-20T12:26:57;9.65;;;6.53;;
49566;SDS011;35472;50.514;30.448;2023-12-20T12:29:27;7.18;;;5.43;;
49566;SDS011;35472;50.514;30.448;2023-12-20T12:31:52;8.60;;;5.57;;
49566;SDS011;35472;50.514;30.448;2023-12-20T12:34:18;10.73;;;5.32;;
49566;SDS011;35472;50.514;30.448;2023-12-20T12:36:43;7.78;;;4.97;;
49566;SDS011;35472;50.514;30.448;2023-12-20T12:39:13;10.88;;;6.15;;
49566;SDS011;35472;50.514;30.448;2023-12-20T12:41:40;10.38;;;5.78;;
49566;SDS011;35472;50.514;30.448;2023-12-20T12:44:08;11.18;;;6.47;;
49566;SDS011;35472;50.514;30.448;2023-12-20T12:46:35;9.73;;;6.25;;
49566;SDS011;35472;50.514;30.448;2023-12-20T12:49:01;10.73;;;5.60;;
49566;SDS011;35472;50.514;30.448;2023-12-20T12:51:26;6.97;;;5.60;;
49566;SDS011;35472;50.514;30.448;2023-12-20T12:53:53;8.57;;;5.63;;
49566;SDS011;35472;50.514;30.448;2023-12-20T12:56:22;9.23;;;5.75;;
49566;SDS011;35472;50.514;30.448;2023-12-20T12:58:48;12.05;;;5.65;;
49566;SDS011;35472;50.514;30.448;2023-12-20T13:01:13;8.48;;;5.78;;
49566;SDS011;35472;50.514;30.448;2023-12-20T13:03:39;6.97;;;5.03;;
49566;SDS011;35472;50.514;30.448;2023-12-20T13:06:06;8.75;;;6.00;;
49566;SDS011;35472;50.514;30.448;2023-12-20T13:08:36;9.88;;;5.88;;
49566;SDS011;35472;50.514;30.448;2023-12-20T13:11:02;10.80;;;6.45;;
49566;SDS011;35472;50.514;30.448;2023-12-20T13:13:29;12.05;;;5.55;;
49566;SDS011;35472;50.514;30.448;2023-12-20T13:15:55;9.90;;;6.22;;
49566;SDS011;35472;50.514;30.448;2023-12-20T13:18:21;8.25;;;5.93;;
49566;SDS011;35472;50.514;30.448;2023-12-20T13:20:47;12.23;;;5.85;;
49566;SDS011;35472;50.514;30.448;2023-12-20T13:23:13;8.88;;;5.22;;
49566;SDS011;35472;50.514;30.448;2023-12-20T13:25:39;10.77;;;6.38;;
49566;SDS011;35472;50.514;30.448;2023-12-20T13:28:05;13.80;;;7.07;;
49566;SDS011;35472;50.514;30.448;2023-12-20T13:30:30;9.55;;;6.03;;
49566;SDS011;35472;50.514;30.448;2023-12-20T13:32:58;10.48;;;6.05;;
49566;SDS011;35472;50.514;30.448;2023-12-20T13:35:26;11.23;;;6.35;;
49566;SDS011;35472;50.514;30.448;2023-12-20T13:37:52;8.75;;;6.35;;
49566;SDS011;35472;50.514;30.448;2023-12-20T13:40:18;16.90;;;7.25;;
49566;SDS011;35472;50.514;30.448;2023-12-20T13:42:46;12.48;;;7.07;;
49566;SDS011;35472;50.514;30.448;2023-12-20T13:45:11;16.00;;;6.25;;
49566;SDS011;35472;50.514;30.448;2023-12-20T13:47:36;12.52;;;7.78;;
49566;SDS011;35472;50.514;30.448;2023-12-20T13:50:02;10.63;;;7.15;;
49566;SDS011;35472;50.514;30.448;2023-12-20T13:52:29;17.95;;;8.00;;
49566;SDS011;35472;50.514;30.448;2023-12-20T13:54:54;11.25;;;6.57;;
49566;SDS011;35472;50.514;30.448;2023-12-20T13:57:19;12.80;;;6.55;;
49566;SDS011;35472;50.514;30.448;2023-12-20T13:59:49;14.20;;;6.47;;
49566;SDS011;35472;50.514;30.448;2023-12-20T14:02:14;12.10;;;6.85;;
49566;SDS011;35472;50.514;30.448;2023-12-20T14:04:41;9.20;;;5.93;;
49566;SDS011;35472;50.514;30.448;2023-12-20T14:07:07;10.90;;;6.38;;
49566;SDS011;35472;50.514;30.448;2023-12-20T14:09:32;10.88;;;5.70;;
49566;SDS011;35472;50.514;30.448;2023-12-20T14:11:58;12.73;;;6.55;;
49566;SDS011;35472;50.514;30.448;2023-12-20T14:14:24;12.60;;;6.50;;
49566;SDS011;35472;50.514;30.448;2023-12-20T14:16:49;11.55;;;7.07;;
49566;SDS011;35472;50.514;30.448;2023-12-20T14:19:15;12.70;;;7.57;;
49566;SDS011;35472;50.514;30.448;2023-12-20T14:21:41;19.17;;;7.88;;
49566;SDS011;35472;50.514;30.448;2023-12-20T14:24:06;12.68;;;7.50;;
49566;SDS011;35472;50.514;30.448;2023-12-20T14:26:31;11.27;;;6.97;;
49566;SDS011;35472;50.514;30.448;2023-12-20T14:28:57;11.05;;;6.35;;
49566;SDS011;35472;50.514;30.448;2023-12-20T14:31:22;11.50;;;7.18;;